sensor_id;sensor_type;location;lat;lon;timestamp;pressure;altitude;pressure_sealevel;temperature;humidity
51315;BME280;65787;59.922;10.742;2023-05-20T19:37:36;101996.03;;;28.79;14.89
51315;BME280;65787;59.922;10.742;2023-05-20T19:40:03;101998.81;;;28.59;15.23
51315;BME280;65787;59.922;10.742;2023-05-20T19:42:29;101994.66;;;28.41;15.18
51315;BME280;65787;59.922;10.742;2023-05-20T19:44:54;101994.09;;;28.38;15.01
51315;BME280;65787;59.922;10.742;2023-05-20T19:47:20;101994.38;;;28.16;15.24
51315;BME280;65787;59.922;10.742;2023-05-20T19:49:45;102008.69;;;27.93;15.06
51315;BME280;65787;59.922;10.742;2023-05-20T19:52:11;102006.16;;;27.81;15.10
51315;BME280;65787;59.922;10.742;2023-05-20T19:54:36;102010.00;;;27.70;15.27
51315;BME280;65787;59.922;10.742;2023-05-20T19:57:01;102018.56;;;27.68;15.31
51315;BME280;65787;59.922;10.742;2023-05-20T19:59:30;102019.91;;;27.60;15.39
51315;BME280;65787;59.922;10.742;2023-05-20T20:01:55;102010.50;;;27.61;15.69
51315;BME280;65787;59.922;10.742;2023-05-20T20:04:27;102011.34;;;27.57;15.77
51315;BME280;65787;59.922;10.742;2023-05-20T20:06:52;102006.63;;;27.57;15.38
51315;BME280;65787;59.922;10.742;2023-05-20T20:09:17;102009.66;;;27.51;15.52
51315;BME280;65787;59.922;10.742;2023-05-20T20:11:43;102006.84;;;27.40;15.68
51315;BME280;65787;59.922;10.742;2023-05-20T20:14:08;102008.25;;;27.38;15.88
51315;BME280;65787;59.922;10.742;2023-05-20T20:16:33;102008.50;;;27.36;15.65
51315;BME280;65787;59.922;10.742;2023-05-20T20:18:59;101999.56;;;27.24;15.90
51315;BME280;65787;59.922;10.742;2023-05-20T20:21:25;101998.69;;;27.13;16.03
51315;BME280;65787;59.922;10.742;2023-05-20T20:23:50;101994.59;;;27.16;16.19
51315;BME280;65787;59.922;10.742;2023-05-20T20:26:16;101997.84;;;27.08;15.84
51315;BME280;65787;59.922;10.742;2023-05-20T20:28:42;101996.16;;;27.01;15.59
51315;BME280;65787;59.922;10.742;2023-05-20T20:31:09;101993.91;;;26.93;16.48
51315;BME280;65787;59.922;10.742;2023-05-20T20:33:34;101997.97;;;26.85;16.31
51315;BME280;65787;59.922;10.742;2023-05-20T20:36:00;101996.50;;;26.68;16.76
51315;BME280;65787;59.922;10.742;2023-05-20T20:38:26;101998.53;;;26.50;16.51
51315;BME280;65787;59.922;10.742;2023-05-20T20:40:51;101991.59;;;26.42;16.49
51315;BME280;65787;59.922;10.742;2023-05-20T20:43:18;101993.16;;;26.33;17.01
51315;BME280;65787;59.922;10.742;2023-05-20T20:45:44;101989.78;;;26.26;16.52
51315;BME280;65787;59.922;10.742;2023-05-20T20:48:11;101986.44;;;26.19;16.52
51315;BME280;65787;59.922;10.742;2023-05-20T20:50:41;101991.84;;;26.08;17.00
51315;BME280;65787;59.922;10.742;2023-05-20T20:53:07;101990.41;;;26.01;17.07
51315;BME280;65787;59.922;10.742;2023-05-20T20:55:32;101986.50;;;25.97;17.29
51315;BME280;65787;59.922;10.742;2023-05-20T20:57:58;101992.69;;;25.87;17.54
51315;BME280;65787;59.922;10.742;2023-05-20T21:00:26;101992.53;;;25.72;18.16
51315;BME280;65787;59.922;10.742;2023-05-20T21:02:51;101981.94;;;25.58;18.52
51315;BME280;65787;59.922;10.742;2023-05-20T21:05:17;101984.63;;;25.53;17.87
51315;BME280;65787;59.922;10.742;2023-05-20T21:07:42;101986.41;;;25.42;18.20
51315;BME280;65787;59.922;10.742;2023-05-20T21:10:10;101988.59;;;25.40;18.48
51315;BME280;65787;59.922;10.742;2023-05-20T21:12:36;101983.03;;;25.35;19.06
51315;BME280;65787;59.922;10.742;2023-05-20T21:15:01;101981.06;;;25.30;19.65
51315;BME280;65787;59.922;10.742;2023-05-20T21:17:27;101979.38;;;25.29;19.66
51315;BME280;65787;59.922;10.742;2023-05-20T21:19:52;101973.84;;;25.24;20.12
51315;BME280;65787;59.922;10.742;2023-05-20T21:22:19;101978.09;;;25.15;20.08
51315;BME280;65787;59.922;10.742;2023-05-20T21:24:44;101977.19;;;25.09;19.60
51315;BME280;65787;59.922;10.742;2023-05-20T21:27:09;101981.22;;;25.02;20.49
51315;BME280;65787;59.922;10.742;2023-05-20T21:29:35;101981.53;;;24.88;20.79
51315;BME280;65787;59.922;10.742;2023-05-20T21:32:01;101981.41;;;24.78;21.13
51315;BME280;65787;59.922;10.742;2023-05-20T21:34:26;101977.84;;;24.61;21.07
51315;BME280;65787;59.922;10.742;2023-05-20T21:36:51;101975.53;;;24.52;21.04
51315;BME280;65787;59.922;10.742;2023-05-20T21:39:17;101979.16;;;24.41;22.16
51315;BME280;65787;59.922;10.742;2023-05-20T21:41:42;101977.06;;;24.31;21.78
51315;BME280;65787;59.922;10.742;2023-05-20T21:44:08;101979.41;;;24.23;22.09
51315;BME280;65787;59.922;10.742;2023-05-20T21:46:33;101975.72;;;24.17;21.61
51315;BME280;65787;59.922;10.742;2023-05-20T21:48:58;101974.94;;;24.05;22.52
51315;BME280;65787;59.922;10.742;2023-05-20T21:51:23;101980.69;;;24.03;22.13
51315;BME280;65787;59.922;10.742;2023-05-20T21:53:49;101970.38;;;23.93;22.53
51315;BME280;65787;59.922;10.742;2023-05-20T21:56:14;101976.84;;;23.87;22.83
51315;BME280;65787;59.922;10.742;2023-05-20T21:58:40;101969.94;;;23.85;23.04
51315;BME280;65787;59.922;10.742;2023-05-20T22:01:06;101976.03;;;23.75;23.15
51315;BME280;65787;59.922;10.742;2023-05-20T22:03:31;101979.28;;;23.72;22.66
51315;BME280;65787;59.922;10.742;2023-05-20T22:05:57;101977.84;;;23.69;22.65
51315;BME280;65787;59.922;10.742;2023-05-20T22:08:22;101979.41;;;23.65;23.24
51315;BME280;65787;59.922;10.742;2023-05-20T22:10:48;101977.88;;;23.57;23.18
51315;BME280;65787;59.922;10.742;2023-05-20T22:13:13;101986.00;;;23.52;23.38
51315;BME280;65787;59.922;10.742;2023-05-20T22:15:38;101982.81;;;23.44;23.70
51315;BME280;65787;59.922;10.742;2023-05-20T22:18:04;101979.97;;;23.38;23.85
51315;BME280;65787;59.922;10.742;2023-05-20T22:20:29;101984.66;;;23.26;24.10
51315;BME280;65787;59.922;10.742;2023-05-20T22:22:57;101978.47;;;23.19;24.22
51315;BME280;65787;59.922;10.742;2023-05-20T22:25:23;101979.56;;;23.18;23.62
51315;BME280;65787;59.922;10.742;2023-05-20T22:27:48;101975.59;;;23.14;24.09
51315;BME280;65787;59.922;10.742;2023-05-20T22:30:13;101975.53;;;23.09;23.68
51315;BME280;65787;59.922;10.742;2023-05-20T22:32:39;101986.56;;;23.02;23.99
51315;BME280;65787;59.922;10.742;2023-05-20T22:35:05;101981.94;;;22.91;24.46
51315;BME280;65787;59.922;10.742;2023-05-20T22:37:30;101979.06;;;22.86;24.10
51315;BME280;65787;59.922;10.742;2023-05-20T22:39:55;101984.78;;;22.84;23.55
51315;BME280;65787;59.922;10.742;2023-05-20T22:42:21;101985.03;;;22.83;24.36
51315;BME280;65787;59.922;10.742;2023-05-20T22:44:46;101984.41;;;22.80;24.34
51315;BME280;65787;59.922;10.742;2023-05-20T22:47:11;101986.78;;;22.77;23.93
51315;BME280;65787;59.922;10.742;2023-05-20T22:49:37;101985.75;;;22.66;24.18
51315;BME280;65787;59.922;10.742;2023-05-20T22:52:06;101987.63;;;22.66;24.35
51315;BME280;65787;59.922;10.742;2023-05-20T22:54:32;101983.13;;;22.59;25.14
51315;BME280;65787;59.922;10.742;2023-05-20T22:56:58;101989.78;;;22.52;24.76
51315;BME280;65787;59.922;10.742;2023-05-20T22:59:26;101982.16;;;22.42;24.98
51315;BME280;65787;59.922;10.742;2023-05-20T23:01:55;101980.94;;;22.38;24.46
51315;BME280;65787;59.922;10.742;2023-05-20T23:04:20;101986.53;;;22.31;24.67
51315;BME280;65787;59.922;10.742;2023-05-20T23:06:45;101982.44;;;22.22;24.83
51315;BME280;65787;59.922;10.742;2023-05-20T23:09:11;101978.13;;;22.14;25.18
51315;BME280;65787;59.922;10.742;2023-05-20T23:11:37;101983.47;;;22.09;25.13
51315;BME280;65787;59.922;10.742;2023-05-20T23:14:02;101981.91;;;22.01;25.49
51315;BME280;65787;59.922;10.742;2023-05-20T23:16:28;101983.28;;;21.92;25.51
51315;BME280;65787;59.922;10.742;2023-05-20T23:18:53;101981.25;;;21.88;25.54
51315;BME280;65787;59.922;10.742;2023-05-20T23:21:19;101978.84;;;21.79;25.46
51315;BME280;65787;59.922;10.742;2023-05-20T23:23:44;101980.88;;;21.84;25.48
51315;BME280;65787;59.922;10.742;2023-05-20T23:26:09;101977.09;;;21.85;25.24
51315;BME280;65787;59.922;10.742;2023-05-20T23:28:35;101974.13;;;21.87;25.30
51315;BME280;65787;59.922;10.742;2023-05-20T23:31:00;101967.44;;;21.82;25.45
51315;BME280;65787;59.922;10.742;2023-05-20T23:33:25;101972.63;;;21.72;25.17
51315;BME280;65787;59.922;10.742;2023-05-20T23:35:51;101974.25;;;21.61;26.11
51315;BME280;65787;59.922;10.742;2023-05-20T23:38:16;101974.72;;;21.58;25.48
51315;BME280;65787;59.922;10.742;2023-05-20T23:40:42;101975.63;;;21.52;25.33
51315;BME280;65787;59.922;10.742;2023-05-20T23:43:07;101974.03;;;21.44;26.24
51315;BME280;65787;59.922;10.742;2023-05-20T23:45:32;101977.22;;;21.41;25.74
51315;BME280;65787;59.922;10.742;2023-05-20T23:47:57;101980.25;;;21.33;26.82
51315;BME280;65787;59.922;10.742;2023-05-20T23:50:25;101979.03;;;21.29;26.43
51315;BME280;65787;59.922;10.742;2023-05-20T23:52:51;101976.97;;;21.24;25.67
51315;BME280;65787;59.922;10.742;2023-05-20T23:55:17;101976.00;;;21.19;25.84
51315;BME280;65787;59.922;10.742;2023-05-20T23:57:42;101974.13;;;21.19;26.26
